createdAt,value
2019-06-07T00:01:12.141Z,10.4
2019-06-07T00:02:24.033Z,9.8
2019-06-07T00:03:36.545Z,10.4
2019-06-07T00:04:48.739Z,10
2019-06-07T00:06:00.944Z,9.2
2019-06-07T00:07:13.142Z,12.1
2019-06-07T00:08:25.340Z,12.7
2019-06-07T00:09:37.544Z,9.9
2019-06-07T00:10:49.731Z,11.2
2019-06-07T00:12:01.930Z,9.9
2019-06-07T00:13:14.129Z,10.1
2019-06-07T00:14:26.327Z,11
2019-06-07T00:15:38.529Z,12.7
2019-06-07T00:16:50.737Z,13.4
2019-06-07T00:18:02.934Z,10.4
2019-06-07T00:19:15.132Z,11
2019-06-07T00:20:27.329Z,12.5
2019-06-07T00:21:39.522Z,9.3
2019-06-07T00:22:51.721Z,11.3
2019-06-07T00:24:03.932Z,12.2
2019-06-07T00:25:16.012Z,11.8
2019-06-07T00:26:28.320Z,10.9
2019-06-07T00:27:40.518Z,11.2
2019-06-07T00:28:52.007Z,12.3
2019-06-07T00:30:04.916Z,11.1
2019-06-07T00:31:17.109Z,14.5
2019-06-07T00:32:29.310Z,12.6
2019-06-07T00:33:41.514Z,14.1
2019-06-07T00:34:53.710Z,12.9
2019-06-07T00:36:05.910Z,11.3
2019-06-07T00:37:18.115Z,12
2019-06-07T00:38:30.310Z,15.7
2019-06-07T00:39:42.509Z,12.4
2019-06-07T00:40:54.708Z,12.4
2019-06-07T00:42:06.900Z,10.9
2019-06-07T00:43:19.098Z,11.9
2019-06-07T00:44:31.300Z,12.3
2019-06-07T00:45:43.500Z,12.7
2019-06-07T00:46:55.698Z,10.7
2019-06-07T00:48:07.898Z,12.5
2019-06-07T00:49:20.100Z,11.7
2019-06-07T00:50:32.299Z,12.8
2019-06-07T00:51:44.500Z,12
2019-06-07T00:52:56.692Z,10.9
2019-06-07T00:54:08.088Z,12.3
2019-06-07T00:55:21.088Z,13.6
2019-06-07T00:56:33.288Z,12.3
2019-06-07T00:57:45.491Z,13.1
2019-06-07T00:58:57.689Z,13.3
2019-06-07T01:00:09.088Z,12.9
2019-06-07T01:01:22.089Z,13.3
2019-06-07T01:02:34.288Z,13.8
2019-06-07T01:03:46.478Z,14
2019-06-07T01:04:58.688Z,15
2019-06-07T01:06:10.874Z,12.5
2019-06-07T01:07:23.080Z,12
2019-06-07T01:08:35.282Z,12.9
2019-06-07T01:09:47.481Z,15.5
2019-06-07T01:10:59.679Z,13.1
2019-06-07T01:12:11.879Z,12
2019-06-07T01:13:24.078Z,11.9
2019-06-07T01:14:36.277Z,13.7
2019-06-07T01:15:48.470Z,14.9
2019-06-07T01:17:00.665Z,13.6
2019-06-07T01:18:12.867Z,14.5
2019-06-07T01:19:25.064Z,12.3
2019-06-07T01:20:37.267Z,14.6
2019-06-07T01:21:49.468Z,13.5
2019-06-07T01:23:01.665Z,14.3
2019-06-07T01:24:13.867Z,11
2019-06-07T01:25:26.076Z,14.8
2019-06-07T01:26:38.266Z,13.5
2019-06-07T01:27:50.456Z,15.2
2019-06-07T01:29:02.654Z,14.3
2019-06-07T01:30:14.858Z,12.7
2019-06-07T01:31:27.055Z,14.5
2019-06-07T01:32:39.256Z,18.7
2019-06-07T01:33:51.455Z,16.2
2019-06-07T01:35:03.654Z,13.4
2019-06-07T01:36:15.898Z,14
2019-06-07T01:37:28.057Z,16.4
2019-06-07T01:38:40.257Z,17.2
2019-06-07T01:39:52.465Z,16.4
2019-06-07T01:41:04.657Z,14.1
2019-06-07T01:42:16.084Z,14.7
2019-06-07T01:43:29.004Z,14.6
2019-06-07T01:44:41.000Z,14.3
2019-06-07T01:45:53.447Z,16.5
2019-06-07T01:47:05.645Z,15.5
2019-06-07T01:48:17.847Z,13.6
2019-06-07T01:49:30.045Z,13.7
2019-06-07T01:50:42.243Z,15
2019-06-07T01:51:54.450Z,14.3
2019-06-07T01:53:06.633Z,15.5
2019-06-07T01:54:18.835Z,16.2
2019-06-07T01:55:31.037Z,14.1
2019-06-07T01:56:43.235Z,13.7
2019-06-07T01:57:55.451Z,13.5
2019-06-07T01:59:07.635Z,13.6
2019-06-07T02:00:19.835Z,13.3
2019-06-07T02:01:32.033Z,17.1
2019-06-07T02:02:44.024Z,17.6
2019-06-07T02:03:56.432Z,14.8
2019-06-07T02:05:08.636Z,14.8
2019-06-07T02:06:20.833Z,16.1
2019-06-07T02:07:33.040Z,14.4
2019-06-07T02:08:45.235Z,17.1
2019-06-07T02:09:57.433Z,14.7
2019-06-07T02:11:09.726Z,15.3
2019-06-07T02:12:21.836Z,15.6
2019-06-07T02:13:34.035Z,15.4
2019-06-07T02:14:46.234Z,14
2019-06-07T02:15:58.433Z,14.5
2019-06-07T02:17:10.063Z,15.1
2019-06-07T02:18:22.833Z,16.2
2019-06-07T02:19:35.035Z,13.8
2019-06-07T02:20:47.229Z,15.2
2019-06-07T02:21:59.435Z,16.5
2019-06-07T02:23:11.633Z,15.6
2019-06-07T02:24:23.831Z,15.9
2019-06-07T02:25:36.061Z,14.2
2019-06-07T02:26:48.229Z,15.7
2019-06-07T02:28:00.444Z,16.4
2019-06-07T02:29:12.635Z,17.5
2019-06-07T02:30:24.841Z,16.5
2019-06-07T02:31:37.040Z,14.4
2019-06-07T02:32:49.241Z,16.7
2019-06-07T02:34:01.439Z,16.9
2019-06-07T02:35:13.644Z,14.4
2019-06-07T02:36:25.842Z,15.1
2019-06-07T02:37:38.046Z,15.5
2019-06-07T02:38:50.244Z,16.7
2019-06-07T02:40:02.440Z,16.2
2019-06-07T02:41:14.641Z,18.1
2019-06-07T02:42:26.844Z,18.9
2019-06-07T02:43:39.043Z,16.7
2019-06-07T02:44:51.239Z,16.1
2019-06-07T02:46:03.043Z,16.5
2019-06-07T02:47:15.641Z,16.6
2019-06-07T02:48:27.084Z,13.8
2019-06-07T02:49:40.037Z,16.8
2019-06-07T02:50:52.240Z,16.3
2019-06-07T02:52:04.450Z,15.9
2019-06-07T02:53:16.649Z,17.9
2019-06-07T02:54:28.852Z,15.4
2019-06-07T02:55:41.051Z,16.4
2019-06-07T02:56:53.253Z,15
2019-06-07T02:58:05.452Z,16
2019-06-07T02:59:17.651Z,17.4
2019-06-07T03:00:29.085Z,17.5
2019-06-07T03:01:42.047Z,16
2019-06-07T03:02:54.250Z,16.5
2019-06-07T03:04:06.450Z,16.5
2019-06-07T03:05:18.658Z,18.2
2019-06-07T03:06:30.848Z,16.8
2019-06-07T03:07:43.050Z,17.6
2019-06-07T03:08:55.246Z,17.2
2019-06-07T03:10:07.450Z,17.4
2019-06-07T03:11:19.650Z,18.5
2019-06-07T03:12:31.848Z,16.9
2019-06-07T03:13:44.058Z,14.8
2019-06-07T03:14:56.258Z,17.4
2019-06-07T03:16:08.461Z,17.9
2019-06-07T03:17:20.658Z,17.9
2019-06-07T03:18:32.085Z,16.6
2019-06-07T03:19:45.059Z,14.6
2019-06-07T03:20:57.260Z,18.3
2019-06-07T03:22:09.458Z,17.4
2019-06-07T03:23:21.658Z,18.2
2019-06-07T03:24:33.856Z,18
2019-06-07T03:25:46.058Z,15.9
2019-06-07T03:26:58.258Z,18.4
2019-06-07T03:28:10.458Z,19
2019-06-07T03:29:22.658Z,18.4
2019-06-07T03:30:34.866Z,18.5
2019-06-07T03:31:47.094Z,19.2
2019-06-07T03:32:59.268Z,18.8
2019-06-07T03:34:11.046Z,19.9
2019-06-07T03:35:23.669Z,18.7
2019-06-07T03:36:35.866Z,17.7
2019-06-07T03:37:48.006Z,20.3
2019-06-07T03:39:00.270Z,18.1
2019-06-07T03:40:12.464Z,18.8
2019-06-07T03:41:24.666Z,21.2
2019-06-07T03:42:36.893Z,16.4
2019-06-07T03:43:49.067Z,19
2019-06-07T03:45:01.266Z,19.9
2019-06-07T03:46:13.468Z,17.5
2019-06-07T03:47:25.674Z,22.2
2019-06-07T03:48:37.877Z,17.6
2019-06-07T03:49:50.080Z,18.4
2019-06-07T03:51:02.277Z,16.7
2019-06-07T03:52:14.047Z,20.9
2019-06-07T03:53:26.676Z,17.9
2019-06-07T03:54:38.880Z,19.1
2019-06-07T03:55:51.076Z,19.4
2019-06-07T03:57:03.277Z,18.8
2019-06-07T03:58:15.475Z,21.2
2019-06-07T03:59:27.679Z,20.5
2019-06-07T04:00:39.872Z,17.5
2019-06-07T04:01:52.079Z,18.9
2019-06-07T04:03:04.278Z,19.6
2019-06-07T04:04:16.048Z,19.9
2019-06-07T04:05:28.686Z,21.6
2019-06-07T04:06:41.000Z,17.5
2019-06-07T04:07:53.084Z,19.8
2019-06-07T04:09:05.286Z,19.5
2019-06-07T04:10:17.490Z,19.1
2019-06-07T04:11:29.068Z,18.6
2019-06-07T04:12:41.885Z,18.8
2019-06-07T04:13:54.084Z,21.7
2019-06-07T04:15:06.283Z,19.3
2019-06-07T04:16:18.487Z,21.7
2019-06-07T04:17:30.687Z,18.5
2019-06-07T04:18:42.894Z,19.5
2019-06-07T04:19:55.092Z,18
2019-06-07T04:21:07.296Z,18.6
2019-06-07T04:22:19.492Z,19.5
2019-06-07T04:23:31.690Z,17.7
2019-06-07T04:24:43.895Z,17.9
2019-06-07T04:25:56.095Z,19.2
2019-06-07T04:27:08.292Z,15.9
2019-06-07T04:28:20.492Z,18.2
2019-06-07T04:29:32.691Z,18.3
2019-06-07T04:30:44.892Z,18.6
2019-06-07T04:31:57.095Z,17.8
2019-06-07T04:33:09.290Z,19.1
2019-06-07T04:34:21.495Z,18.8
2019-06-07T04:35:33.703Z,18.1
2019-06-07T04:36:45.911Z,19.1
2019-06-07T04:37:58.105Z,19
2019-06-07T04:39:10.301Z,18.7
2019-06-07T04:40:22.501Z,19.5
2019-06-07T04:41:34.703Z,19.9
2019-06-07T04:42:46.903Z,16.2
2019-06-07T04:43:59.104Z,17.9
2019-06-07T04:45:11.299Z,17
2019-06-07T04:46:23.501Z,18.6
2019-06-07T04:47:35.701Z,16.7
2019-06-07T04:48:47.907Z,18.4
2019-06-07T04:50:00.111Z,17.5
2019-06-07T04:51:12.312Z,18.4
2019-06-07T04:52:24.511Z,16.7
2019-06-07T04:53:36.071Z,18.4
2019-06-07T04:54:48.914Z,17
2019-06-07T04:56:01.111Z,17.9
2019-06-07T04:57:13.003Z,15.5
2019-06-07T04:58:25.512Z,16.9
2019-06-07T04:59:37.713Z,19.1
2019-06-07T05:00:49.091Z,18.4
2019-06-07T05:02:02.119Z,16.8
2019-06-07T05:03:14.326Z,17.6
2019-06-07T05:04:26.051Z,17.5
2019-06-07T05:05:38.721Z,17.5
2019-06-07T05:06:50.919Z,16.5
2019-06-07T05:08:03.118Z,18.5
2019-06-07T05:09:15.325Z,15.7
2019-06-07T05:10:27.052Z,15.6
2019-06-07T05:11:39.719Z,16.4
2019-06-07T05:12:51.921Z,14.7
2019-06-07T05:14:04.119Z,16.1
2019-06-07T05:15:16.325Z,14.1
2019-06-07T05:16:28.530Z,15.5
2019-06-07T05:17:40.730Z,17
2019-06-07T05:18:52.931Z,19
2019-06-07T05:20:05.130Z,16.1
2019-06-07T05:21:17.328Z,14.9
2019-06-07T05:22:29.529Z,15.4
2019-06-07T05:23:41.732Z,16.6
2019-06-07T05:24:53.929Z,15.8
2019-06-07T05:26:06.132Z,14.7
2019-06-07T05:27:18.328Z,19.5
2019-06-07T05:28:30.529Z,16.7
2019-06-07T05:29:42.729Z,14.3
2019-06-07T05:30:54.925Z,15.8
2019-06-07T05:32:07.128Z,16.2
2019-06-07T05:33:19.346Z,15.3
2019-06-07T05:34:31.053Z,13.3
2019-06-07T05:35:43.073Z,13.1
2019-06-07T05:36:55.937Z,15.6
2019-06-07T05:38:08.146Z,13
2019-06-07T05:39:20.033Z,14.2
2019-06-07T05:40:32.541Z,13.2
2019-06-07T05:41:44.737Z,14.7
2019-06-07T05:42:56.938Z,12.2
2019-06-07T05:44:09.139Z,13.9
2019-06-07T05:45:21.340Z,12.3
2019-06-07T05:46:33.539Z,13.1
2019-06-07T05:47:45.748Z,11.2
2019-06-07T05:48:57.948Z,11.1
2019-06-07T05:50:10.148Z,10.8
2019-06-07T05:51:22.347Z,14.3
2019-06-07T05:52:34.546Z,13.9
2019-06-07T05:53:46.745Z,11.6
2019-06-07T05:54:58.946Z,10.7
2019-06-07T05:56:11.146Z,11.1
2019-06-07T05:57:23.348Z,11.3
2019-06-07T05:58:35.545Z,11.1
2019-06-07T05:59:47.074Z,10.8
2019-06-07T06:00:59.946Z,12.1
2019-06-07T06:02:12.156Z,9.2
2019-06-07T06:03:24.357Z,12.4
2019-06-07T06:04:36.556Z,10.2
2019-06-07T06:05:48.075Z,11.1
2019-06-07T06:07:00.095Z,10.1
2019-06-07T06:08:13.158Z,11.4
2019-06-07T06:09:25.356Z,8.8
2019-06-07T06:10:37.560Z,9.7
2019-06-07T06:11:49.758Z,8.6
2019-06-07T06:13:01.954Z,9.8
2019-06-07T06:14:14.154Z,8.5
2019-06-07T06:15:26.355Z,7.1
2019-06-07T06:16:38.558Z,8.8
2019-06-07T06:17:50.758Z,8.1
2019-06-07T06:19:02.962Z,9.2
2019-06-07T06:20:15.169Z,7.3
2019-06-07T06:21:27.364Z,7.2
2019-06-07T06:22:39.563Z,6.8
2019-06-07T06:23:51.786Z,7.7
2019-06-07T06:25:03.967Z,6.2
2019-06-07T06:26:16.165Z,9.5
2019-06-07T06:27:28.365Z,7.4
2019-06-07T06:28:40.562Z,7.5
2019-06-07T06:29:52.765Z,6.2
2019-06-07T06:31:04.966Z,6.5
2019-06-07T06:32:17.164Z,7.8
2019-06-07T06:33:29.374Z,6.9
2019-06-07T06:34:41.577Z,8.8
2019-06-07T06:35:53.774Z,7.4
2019-06-07T06:37:05.974Z,5.8
2019-06-07T06:38:18.017Z,8.5
2019-06-07T06:39:30.372Z,7.2
2019-06-07T06:40:42.577Z,6.2
2019-06-07T06:41:54.770Z,8.7
2019-06-07T06:43:06.977Z,5.8
2019-06-07T06:44:19.172Z,6.4
2019-06-07T06:45:31.381Z,7.4
2019-06-07T06:46:43.588Z,6
2019-06-07T06:47:55.785Z,8.3
2019-06-07T06:49:07.983Z,7.4
2019-06-07T06:50:20.184Z,7.1
2019-06-07T06:51:32.381Z,6.4
2019-06-07T06:52:44.580Z,6
2019-06-07T06:53:56.784Z,5.9
2019-06-07T06:55:08.984Z,6
2019-06-07T06:56:21.191Z,5.9
2019-06-07T06:57:33.390Z,6.8
2019-06-07T06:58:45.595Z,6
2019-06-07T06:59:57.079Z,5.4
2019-06-07T07:01:09.994Z,5.4
2019-06-07T07:02:22.195Z,6.3
2019-06-07T07:03:34.394Z,5.5
2019-06-07T07:04:46.059Z,6.9
2019-06-07T07:05:58.792Z,5.6
2019-06-07T07:07:11.000Z,6.7
2019-06-07T07:08:23.202Z,7.1
2019-06-07T07:09:35.400Z,6.1
2019-06-07T07:10:47.598Z,6.5
2019-06-07T07:11:59.803Z,6.7
2019-06-07T07:13:12.000Z,7.1
2019-06-07T07:14:24.020Z,5.9
2019-06-07T07:15:36.401Z,6.4
2019-06-07T07:16:48.604Z,5.2
2019-06-07T07:18:00.800Z,5
2019-06-07T07:19:13.010Z,5.5
2019-06-07T07:20:25.210Z,7.1
2019-06-07T07:21:37.042Z,5.4
2019-06-07T07:22:49.610Z,6.1
2019-06-07T07:24:01.081Z,5.4
2019-06-07T07:25:14.010Z,5
2019-06-07T07:26:26.213Z,4.8
2019-06-07T07:27:38.040Z,5.2
2019-06-07T07:28:50.614Z,5.9
2019-06-07T07:30:02.818Z,6.6
2019-06-07T07:31:15.021Z,4.8
2019-06-07T07:32:27.218Z,4.5
2019-06-07T07:33:39.416Z,4.3
2019-06-07T07:34:51.618Z,5.9
2019-06-07T07:36:03.817Z,4.1
2019-06-07T07:37:16.017Z,4.7
2019-06-07T07:38:28.219Z,6.7
2019-06-07T07:39:40.419Z,5.2
2019-06-07T07:40:52.627Z,6.3
2019-06-07T07:42:04.828Z,4.7
2019-06-07T07:43:17.026Z,7.4
2019-06-07T07:44:29.227Z,5.2
2019-06-07T07:45:41.430Z,5.1
2019-06-07T07:46:53.627Z,5.5
2019-06-07T07:48:05.082Z,5.8
2019-06-07T07:49:18.025Z,4.8
2019-06-07T07:50:30.236Z,6
2019-06-07T07:51:42.438Z,7.6
2019-06-07T07:52:54.063Z,4.7
2019-06-07T07:54:06.838Z,5.8
2019-06-07T07:55:19.038Z,5.1
2019-06-07T07:56:31.238Z,6.6
2019-06-07T07:57:43.440Z,4.1
2019-06-07T07:58:55.634Z,5.1
2019-06-07T08:00:07.836Z,5.8
2019-06-07T08:01:20.004Z,6.3
2019-06-07T08:02:32.244Z,5
2019-06-07T08:03:44.449Z,6.4
2019-06-07T08:04:56.645Z,5.1
2019-06-07T08:06:08.846Z,4.9
2019-06-07T08:07:21.045Z,4.4
2019-06-07T08:08:33.245Z,5.2
2019-06-07T08:09:45.445Z,4.9
2019-06-07T08:10:57.655Z,6.5
2019-06-07T08:12:09.852Z,4.3
2019-06-07T08:13:22.060Z,6.2
2019-06-07T08:14:34.259Z,6.1
2019-06-07T08:15:46.466Z,5.3
2019-06-07T08:16:58.653Z,6.2
2019-06-07T08:18:10.852Z,6.1
2019-06-07T08:19:23.056Z,5.3
2019-06-07T08:20:35.255Z,5.7
2019-06-07T08:21:47.464Z,5.1
2019-06-07T08:22:59.668Z,5.2
2019-06-07T08:24:11.865Z,4.3
2019-06-07T08:25:24.006Z,4.9
2019-06-07T08:26:36.262Z,5
2019-06-07T08:27:48.464Z,4.5
2019-06-07T08:29:00.662Z,5.1
2019-06-07T08:30:12.865Z,5.5
2019-06-07T08:31:25.065Z,4.8
2019-06-07T08:32:37.275Z,5
2019-06-07T08:33:49.473Z,4
2019-06-07T08:35:01.673Z,4.9
2019-06-07T08:36:13.875Z,4.5
2019-06-07T08:37:26.073Z,5.9
2019-06-07T08:38:38.272Z,3.7
2019-06-07T08:39:50.477Z,4
2019-06-07T08:41:02.683Z,4.4
2019-06-07T08:42:14.885Z,5
2019-06-07T08:43:27.083Z,4.8
2019-06-07T08:44:39.282Z,5.9
2019-06-07T08:45:51.481Z,5.3
2019-06-07T08:47:03.068Z,6.5
2019-06-07T08:48:15.881Z,6.2
2019-06-07T08:49:28.084Z,6.2
2019-06-07T08:50:40.282Z,5.4
2019-06-07T08:51:52.485Z,5.8
2019-06-07T08:53:04.006Z,5.4
2019-06-07T08:54:16.879Z,6.6
2019-06-07T08:55:29.091Z,5.6
2019-06-07T08:56:41.292Z,5.8
2019-06-07T08:57:53.049Z,6.8
2019-06-07T08:59:05.694Z,6.1
2019-06-07T09:00:17.889Z,5.7
2019-06-07T09:01:30.091Z,6.4
2019-06-07T09:02:42.290Z,5.6
2019-06-07T09:03:54.487Z,7.1
2019-06-07T09:05:06.694Z,8
2019-06-07T09:06:18.889Z,8
2019-06-07T09:07:31.107Z,7.2
2019-06-07T09:08:43.301Z,7.2
2019-06-07T09:09:55.499Z,6.7
2019-06-07T09:11:07.700Z,6.3
2019-06-07T09:12:19.900Z,7.8
2019-06-07T09:13:32.099Z,6.2
2019-06-07T09:14:44.299Z,6.6
2019-06-07T09:15:56.499Z,7.3
2019-06-07T09:17:08.709Z,6.9
2019-06-07T09:18:20.912Z,7.2
2019-06-07T09:19:33.109Z,7.3
2019-06-07T09:20:45.309Z,7.7
2019-06-07T09:21:57.051Z,7.3
2019-06-07T09:23:09.706Z,6.3
2019-06-07T09:24:21.909Z,7
2019-06-07T09:25:34.109Z,7.5
2019-06-07T09:26:46.308Z,6.1
2019-06-07T09:27:58.509Z,5.8
2019-06-07T09:29:10.716Z,6.6
2019-06-07T09:30:22.918Z,6.4
2019-06-07T09:31:35.011Z,5.5
2019-06-07T09:32:47.317Z,5.5
2019-06-07T09:33:59.051Z,6.9
2019-06-07T09:35:11.718Z,5.6
2019-06-07T09:36:23.918Z,4.2
2019-06-07T09:37:36.118Z,6.6
2019-06-07T09:38:48.316Z,5
2019-06-07T09:40:00.525Z,4.5
2019-06-07T09:41:12.727Z,5.2
2019-06-07T09:42:24.926Z,5.3
2019-06-07T09:43:37.126Z,7.5
2019-06-07T09:44:49.033Z,5.4
2019-06-07T09:46:01.052Z,7.2
2019-06-07T09:47:13.730Z,6.9
2019-06-07T09:48:25.927Z,7
2019-06-07T09:49:38.126Z,8.6
2019-06-07T09:50:50.366Z,5.7
2019-06-07T09:52:02.535Z,6.4
2019-06-07T09:53:14.073Z,6.6
2019-06-07T09:54:26.939Z,6
2019-06-07T09:55:39.134Z,5.4
2019-06-07T09:56:51.338Z,6.5
2019-06-07T09:58:03.053Z,5.7
2019-06-07T09:59:15.737Z,6.9
2019-06-07T10:00:27.949Z,7.8
2019-06-07T10:01:40.146Z,7
2019-06-07T10:02:52.346Z,7.1
2019-06-07T10:04:04.548Z,6.5
2019-06-07T10:05:16.750Z,7.2
2019-06-07T10:06:28.950Z,8.6
2019-06-07T10:07:41.156Z,9
2019-06-07T10:08:53.356Z,6.9
2019-06-07T10:10:05.558Z,6.4
2019-06-07T10:11:17.756Z,6.7
2019-06-07T10:12:29.958Z,5.9
2019-06-07T10:13:42.158Z,7.5
2019-06-07T10:14:54.364Z,6
2019-06-07T10:16:06.556Z,6.3
2019-06-07T10:17:18.760Z,5.8
2019-06-07T10:18:30.974Z,6.1
2019-06-07T10:19:43.166Z,5.5
2019-06-07T10:20:55.362Z,7
2019-06-07T10:22:07.564Z,7.5
2019-06-07T10:23:19.942Z,6.7
2019-06-07T10:24:31.096Z,6.1
2019-06-07T10:25:44.017Z,5.3
2019-06-07T10:26:56.367Z,4.9
2019-06-07T10:28:08.564Z,4.1
2019-06-07T10:29:20.764Z,5.1
2019-06-07T10:30:32.964Z,4.7
2019-06-07T10:31:45.176Z,3.6
2019-06-07T10:32:57.376Z,4.7
2019-06-07T10:34:09.574Z,4.4
2019-06-07T10:35:21.774Z,4.3
2019-06-07T10:36:33.097Z,5.2
2019-06-07T10:37:46.172Z,4.7
2019-06-07T10:38:58.374Z,3.5
2019-06-07T10:40:10.057Z,2.8
2019-06-07T10:41:22.078Z,5.5
2019-06-07T10:42:34.984Z,4.1
2019-06-07T10:43:47.187Z,5.3
2019-06-07T10:44:59.385Z,3.6
2019-06-07T10:46:11.584Z,4.4
2019-06-07T10:47:23.780Z,3.5
2019-06-07T10:48:35.986Z,5
2019-06-07T10:49:48.182Z,3.5
2019-06-07T10:51:00.385Z,3.5
2019-06-07T10:52:12.590Z,3.1
2019-06-07T10:53:24.792Z,4.5
2019-06-07T10:54:36.992Z,5.4
2019-06-07T10:55:49.197Z,3.8
2019-06-07T10:57:01.392Z,6
2019-06-07T10:58:13.600Z,4.1
2019-06-07T10:59:25.792Z,4.4
2019-06-07T11:00:37.991Z,3.7
2019-06-07T11:01:50.193Z,3.9
2019-06-07T11:03:02.410Z,3.3
2019-06-07T11:04:14.602Z,4.8
2019-06-07T11:05:26.800Z,4.4
2019-06-07T11:06:39.002Z,4.2
2019-06-07T11:07:51.204Z,4
2019-06-07T11:09:03.404Z,4.6
2019-06-07T11:10:15.602Z,3.9
2019-06-07T11:11:27.804Z,4
2019-06-07T11:12:40.012Z,3.3
2019-06-07T11:13:52.215Z,3
2019-06-07T11:15:04.413Z,2.4
2019-06-07T11:16:16.609Z,3.9
2019-06-07T11:17:28.809Z,3.3
2019-06-07T11:18:41.010Z,3.7
2019-06-07T11:19:53.216Z,4.1
2019-06-07T11:21:05.411Z,3.4
2019-06-07T11:22:17.616Z,4.9
2019-06-07T11:23:29.821Z,3.2
2019-06-07T11:24:42.025Z,2.5
2019-06-07T11:25:54.225Z,3.6
2019-06-07T11:27:06.422Z,3.5
2019-06-07T11:29:30.082Z,4.1
2019-06-07T11:30:43.022Z,2.4
2019-06-07T11:31:55.002Z,3.3
2019-06-07T11:33:07.425Z,4.6
2019-06-07T11:34:19.623Z,3.6
2019-06-07T11:35:31.820Z,3.2
2019-06-07T11:36:44.020Z,2.9
2019-06-07T11:37:56.212Z,3.2
2019-06-07T11:39:08.410Z,3.5
2019-06-07T11:40:20.610Z,3.5
2019-06-07T11:41:32.812Z,2.7
2019-06-07T11:42:45.011Z,3
2019-06-07T11:43:57.021Z,2.3
2019-06-07T11:45:09.412Z,2.9
2019-06-07T11:46:21.061Z,2.7
2019-06-07T11:47:33.812Z,2.2
2019-06-07T11:48:46.011Z,2.2
2019-06-07T11:49:58.203Z,3
2019-06-07T11:51:10.400Z,2
2019-06-07T11:52:22.603Z,1.6
2019-06-07T11:53:34.800Z,2.2
2019-06-07T11:54:47.002Z,2.4
2019-06-07T11:55:59.200Z,1.7
2019-06-07T11:57:11.401Z,3
2019-06-07T11:58:23.601Z,1.8
2019-06-07T11:59:35.080Z,2.2
2019-06-07T12:00:48.002Z,1.7
2019-06-07T12:02:00.200Z,2.8
2019-06-07T12:03:12.403Z,1.5
2019-06-07T12:04:24.591Z,2.4
2019-06-07T12:05:36.809Z,2.4
2019-06-07T12:06:48.989Z,1.7
2019-06-07T12:08:01.189Z,1.7
2019-06-07T12:09:13.392Z,1.4
2019-06-07T12:10:25.591Z,1.5
2019-06-07T12:11:37.078Z,1.4
2019-06-07T12:12:49.998Z,1
2019-06-07T12:14:02.189Z,1.9
2019-06-07T12:15:14.388Z,2.1
2019-06-07T12:16:26.583Z,1.2
2019-06-07T12:17:38.781Z,1.4
2019-06-07T12:18:50.982Z,1.2
2019-06-07T12:20:03.181Z,0.9
2019-06-07T12:21:15.038Z,2.3
2019-06-07T12:22:27.582Z,1.9
2019-06-07T12:23:39.781Z,1.6
2019-06-07T12:24:51.977Z,1.5
2019-06-07T12:26:04.018Z,1.2
2019-06-07T12:27:16.377Z,1.4
2019-06-07T12:28:28.569Z,1.3
2019-06-07T12:29:40.771Z,1.1
2019-06-07T12:30:52.968Z,1.7
2019-06-07T12:32:05.017Z,1.6
2019-06-07T12:33:17.369Z,1.6
2019-06-07T12:34:29.056Z,2.7
2019-06-07T12:35:41.769Z,2.2
2019-06-07T12:36:53.971Z,1.6
2019-06-07T12:38:06.167Z,2.5
2019-06-07T12:39:18.369Z,2
2019-06-07T12:40:30.571Z,2.6
2019-06-07T12:41:42.761Z,2.9
2019-06-07T12:42:54.961Z,2.5
2019-06-07T12:45:19.358Z,2.1
2019-06-07T12:46:31.559Z,2.2
2019-06-07T12:47:43.758Z,2.7
2019-06-07T12:48:55.096Z,2.7
2019-06-07T12:50:08.159Z,2.6
2019-06-07T12:51:20.360Z,2.4
2019-06-07T12:52:32.559Z,2.7
2019-06-07T12:53:44.760Z,2.9
2019-06-07T12:54:56.951Z,3.6
2019-06-07T12:56:09.147Z,2.7
2019-06-07T12:57:21.432Z,2.4
2019-06-07T12:58:33.548Z,2.3
2019-06-07T12:59:45.748Z,3.2
2019-06-07T13:00:57.949Z,3.8
2019-06-07T13:02:10.147Z,3.5
2019-06-07T13:03:22.349Z,3.8
2019-06-07T13:04:34.550Z,3.6
2019-06-07T13:05:46.075Z,3.3
2019-06-07T13:06:58.094Z,3.2
2019-06-07T13:08:11.138Z,2.9
2019-06-07T13:09:23.338Z,2.2
2019-06-07T13:10:35.537Z,3.8
2019-06-07T13:11:47.073Z,4.3
2019-06-07T13:12:59.938Z,4.7
2019-06-07T13:14:12.138Z,4.8
2019-06-07T13:15:24.336Z,3.4
2019-06-07T13:16:36.005Z,4.3
2019-06-07T13:17:48.740Z,4.3
2019-06-07T13:19:00.937Z,3.7
2019-06-07T13:20:13.132Z,5.1
2019-06-07T13:21:25.328Z,4.8
2019-06-07T13:22:37.524Z,3.4
2019-06-07T13:23:49.726Z,5.9
2019-06-07T13:25:01.928Z,5.3
2019-06-07T13:26:14.126Z,3.8
2019-06-07T13:27:26.326Z,3.8
2019-06-07T13:28:38.530Z,5.7
2019-06-07T13:29:50.727Z,3.8
2019-06-07T13:31:02.928Z,4.2
2019-06-07T13:32:15.121Z,3.3
2019-06-07T13:33:27.031Z,4.3
2019-06-07T13:34:39.517Z,3.5
2019-06-07T13:35:51.719Z,4.5
2019-06-07T13:37:03.917Z,5.1
2019-06-07T13:38:16.120Z,4.2
2019-06-07T13:39:28.316Z,4
2019-06-07T13:40:40.532Z,4.4
2019-06-07T13:41:52.728Z,3.7
2019-06-07T13:43:04.917Z,3.8
2019-06-07T13:44:17.107Z,4.8
2019-06-07T13:45:29.303Z,4.8
2019-06-07T13:46:41.507Z,4.6
2019-06-07T13:47:53.710Z,3.6
2019-06-07T13:49:05.090Z,4
2019-06-07T13:50:18.107Z,3
2019-06-07T13:51:30.307Z,3.8
2019-06-07T13:52:42.537Z,4.2
2019-06-07T13:53:54.707Z,4.3
2019-06-07T13:55:06.905Z,5.1
2019-06-07T13:56:19.107Z,4
2019-06-07T13:57:31.296Z,4.1
2019-06-07T13:58:43.495Z,4.1
2019-06-07T13:59:55.069Z,4.3
2019-06-07T14:01:07.897Z,4.3
2019-06-07T14:02:20.133Z,4.6
2019-06-07T14:03:32.298Z,5.6
2019-06-07T14:04:44.498Z,4.6
2019-06-07T14:05:56.697Z,3.5
2019-06-07T14:07:08.895Z,5.1
2019-06-07T14:08:21.095Z,5
2019-06-07T14:09:33.028Z,5.7
2019-06-07T14:10:45.490Z,5.7
2019-06-07T14:11:57.691Z,4.1
2019-06-07T14:13:09.887Z,4.5
2019-06-07T14:14:22.087Z,6.3
2019-06-07T14:15:34.287Z,6.1
2019-06-07T14:16:46.488Z,5.2
2019-06-07T14:17:58.688Z,5.4
2019-06-07T14:19:10.088Z,4
2019-06-07T14:20:23.077Z,5.4
2019-06-07T14:21:35.276Z,3.8
2019-06-07T14:22:47.478Z,4.5
2019-06-07T14:23:59.067Z,5.1
2019-06-07T14:25:11.873Z,4.6
2019-06-07T14:26:24.077Z,4.8
2019-06-07T14:27:36.274Z,5
2019-06-07T14:28:48.477Z,3.7
2019-06-07T14:30:00.067Z,3.9
2019-06-07T14:31:12.875Z,5.4
2019-06-07T14:32:25.064Z,2.8
2019-06-07T14:33:37.026Z,4.7
2019-06-07T14:34:49.467Z,3.6
2019-06-07T14:36:01.695Z,5.7
2019-06-07T14:37:13.869Z,5
2019-06-07T14:38:26.069Z,5.3
2019-06-07T14:39:38.269Z,3.4
2019-06-07T14:40:50.468Z,4.3
2019-06-07T14:43:14.859Z,5.9
2019-06-07T14:44:27.059Z,4.4
2019-06-07T14:45:39.258Z,4.5
2019-06-07T14:46:51.457Z,3.1
2019-06-07T14:48:03.657Z,4.5
2019-06-07T14:49:15.857Z,4.2
2019-06-07T14:50:28.055Z,5.4
2019-06-07T14:51:40.265Z,4.2
2019-06-07T14:52:52.458Z,5.5
2019-06-07T14:54:04.655Z,3.8
2019-06-07T14:55:16.847Z,4
2019-06-07T14:56:29.049Z,4
2019-06-07T14:57:41.253Z,5.5
2019-06-07T14:58:53.450Z,3.7
2019-06-07T15:00:05.647Z,4.6
2019-06-07T15:01:17.863Z,4.1
2019-06-07T15:02:30.049Z,3.8
2019-06-07T15:03:42.248Z,3.9
2019-06-07T15:04:54.440Z,4.5
2019-06-07T15:06:06.636Z,3.3
2019-06-07T15:07:18.844Z,3.5
2019-06-07T15:08:31.038Z,4.3
2019-06-07T15:09:43.241Z,3.6
2019-06-07T15:10:55.441Z,3.3
2019-06-07T15:12:07.643Z,4.2
2019-06-07T15:13:19.828Z,4.4
2019-06-07T15:14:32.031Z,5.6
2019-06-07T15:15:44.236Z,5.2
2019-06-07T15:16:56.042Z,3.8
2019-06-07T15:18:08.631Z,4.6
2019-06-07T15:19:20.829Z,5.2
2019-06-07T15:20:33.031Z,3.3
2019-06-07T15:21:45.232Z,4
2019-06-07T15:22:57.430Z,4.8
2019-06-07T15:24:09.619Z,3.2
2019-06-07T15:25:21.830Z,3
2019-06-07T15:26:34.002Z,3.3
2019-06-07T15:27:46.226Z,4.2
2019-06-07T15:28:58.420Z,3.2
2019-06-07T15:30:10.624Z,4.1
2019-06-07T15:31:22.825Z,3.1
2019-06-07T15:32:35.001Z,4.4
2019-06-07T15:33:47.221Z,4.2
2019-06-07T15:34:59.418Z,3.5
2019-06-07T15:36:11.620Z,4.6
2019-06-07T15:37:23.822Z,3.7
2019-06-07T15:38:36.012Z,2.6
2019-06-07T15:39:48.213Z,2.8
2019-06-07T15:41:00.413Z,3.5
2019-06-07T15:42:12.611Z,2.5
2019-06-07T15:43:24.814Z,2.9
2019-06-07T15:44:37.014Z,3.3
2019-06-07T15:45:49.212Z,3.5
2019-06-07T15:47:01.413Z,4.1
2019-06-07T15:48:13.610Z,3.6
2019-06-07T15:49:25.814Z,4.5
2019-06-07T15:50:38.004Z,4.3
2019-06-07T15:51:50.208Z,3.8
2019-06-07T15:53:02.402Z,5
2019-06-07T15:54:14.603Z,3.3
2019-06-07T15:55:26.802Z,6.1
2019-06-07T15:56:39.004Z,4.1
2019-06-07T15:57:51.202Z,3.8
2019-06-07T15:59:03.403Z,4.5
2019-06-07T16:00:15.606Z,5.2
2019-06-07T16:01:27.802Z,5.1
2019-06-07T16:02:40.008Z,4.1
2019-06-07T16:03:52.191Z,4.8
2019-06-07T16:05:04.392Z,5
2019-06-07T16:06:16.592Z,7.1
2019-06-07T16:07:28.795Z,5.4
2019-06-07T16:08:40.099Z,5.2
2019-06-07T16:09:53.196Z,5.4
2019-06-07T16:11:05.039Z,5.2
2019-06-07T16:12:17.595Z,7.5
2019-06-07T16:13:29.796Z,5.2
2019-06-07T16:14:41.983Z,7
2019-06-07T16:15:54.186Z,6.2
2019-06-07T16:17:06.382Z,6.1
2019-06-07T16:18:18.586Z,5.2
2019-06-07T16:19:30.784Z,6.1
2019-06-07T16:20:42.984Z,6.6
2019-06-07T16:21:55.183Z,6.5
2019-06-07T16:23:07.385Z,5.7
2019-06-07T16:24:19.059Z,6.2
2019-06-07T16:26:43.097Z,5.5
2019-06-07T16:27:56.176Z,6.2
2019-06-07T16:29:08.037Z,6.4
2019-06-07T16:30:20.574Z,6.9
2019-06-07T16:31:32.777Z,6.2
2019-06-07T16:32:44.974Z,5